UIUU 170400Z 07002MPS 9999 FEW050 29/13 Q1002 R26/60D NOSIG RMK QFE708/0944
QNH:(hPa/inHg/mmHg)1002 / 29.59 / 752
QFE:(hPa/inHg/mmHg)939 / 27.73 / 704
Temperature29
Dew Point13
Visibility> 10000
Weather
Cloud CoverFEW (5000);
Transition Height1800 m./7700 ft.
Transition LevelFL100
SQUAWK